sensor_id;sensor_type;location;lat;lon;timestamp;temperature;humidity
19292;DHT22;9779;51.756;7.450;2022-07-30T00:02:03;19.30;99.90
19292;DHT22;9779;51.756;7.450;2022-07-30T00:04:29;19.30;99.90
19292;DHT22;9779;51.756;7.450;2022-07-30T00:06:55;19.30;99.90
19292;DHT22;9779;51.756;7.450;2022-07-30T00:09:20;19.20;99.90
19292;DHT22;9779;51.756;7.450;2022-07-30T00:11:46;19.20;99.90
19292;DHT22;9779;51.756;7.450;2022-07-30T00:14:11;19.10;99.90
19292;DHT22;9779;51.756;7.450;2022-07-30T00:16:37;19.10;99.90
19292;DHT22;9779;51.756;7.450;2022-07-30T00:19:03;19.00;99.90
19292;DHT22;9779;51.756;7.450;2022-07-30T00:21:28;19.00;99.90
19292;DHT22;9779;51.756;7.450;2022-07-30T00:23:54;18.90;99.90
19292;DHT22;9779;51.756;7.450;2022-07-30T00:26:20;18.90;99.90
19292;DHT22;9779;51.756;7.450;2022-07-30T00:28:45;18.90;99.90
19292;DHT22;9779;51.756;7.450;2022-07-30T00:31:11;18.90;99.90
19292;DHT22;9779;51.756;7.450;2022-07-30T00:33:37;18.80;99.90
19292;DHT22;9779;51.756;7.450;2022-07-30T00:36:02;18.80;99.90
19292;DHT22;9779;51.756;7.450;2022-07-30T00:38:28;18.70;99.90
19292;DHT22;9779;51.756;7.450;2022-07-30T00:40:53;18.70;99.90
19292;DHT22;9779;51.756;7.450;2022-07-30T00:43:19;18.70;99.90
19292;DHT22;9779;51.756;7.450;2022-07-30T00:45:45;18.60;99.90
19292;DHT22;9779;51.756;7.450;2022-07-30T00:48:12;18.60;99.90
19292;DHT22;9779;51.756;7.450;2022-07-30T00:50:38;18.60;99.90
19292;DHT22;9779;51.756;7.450;2022-07-30T00:53:04;18.50;99.90
19292;DHT22;9779;51.756;7.450;2022-07-30T00:55:30;18.50;99.90
19292;DHT22;9779;51.756;7.450;2022-07-30T00:57:56;18.40;99.90
19292;DHT22;9779;51.756;7.450;2022-07-30T01:00:22;18.40;99.90
19292;DHT22;9779;51.756;7.450;2022-07-30T01:02:48;18.30;99.90
19292;DHT22;9779;51.756;7.450;2022-07-30T01:05:13;18.30;99.90
19292;DHT22;9779;51.756;7.450;2022-07-30T01:07:39;18.20;99.90
19292;DHT22;9779;51.756;7.450;2022-07-30T01:10:08;18.20;99.90
19292;DHT22;9779;51.756;7.450;2022-07-30T01:12:34;18.20;99.90
19292;DHT22;9779;51.756;7.450;2022-07-30T01:15:04;18.10;99.90
19292;DHT22;9779;51.756;7.450;2022-07-30T01:17:30;18.10;99.90
19292;DHT22;9779;51.756;7.450;2022-07-30T01:19:59;18.10;99.90
19292;DHT22;9779;51.756;7.450;2022-07-30T01:24:57;18.00;99.90
19292;DHT22;9779;51.756;7.450;2022-07-30T01:27:24;18.00;99.90
19292;DHT22;9779;51.756;7.450;2022-07-30T01:29:52;17.90;99.90
19292;DHT22;9779;51.756;7.450;2022-07-30T01:32:21;17.90;99.90
19292;DHT22;9779;51.756;7.450;2022-07-30T01:34:49;17.90;99.90
19292;DHT22;9779;51.756;7.450;2022-07-30T01:37:16;17.80;99.90
19292;DHT22;9779;51.756;7.450;2022-07-30T01:39:42;17.80;99.90
19292;DHT22;9779;51.756;7.450;2022-07-30T01:42:10;17.80;99.90
19292;DHT22;9779;51.756;7.450;2022-07-30T01:44:36;17.80;99.90
19292;DHT22;9779;51.756;7.450;2022-07-30T01:47:03;17.70;99.90
19292;DHT22;9779;51.756;7.450;2022-07-30T01:49:31;17.60;99.90
19292;DHT22;9779;51.756;7.450;2022-07-30T01:51:59;17.60;99.90
19292;DHT22;9779;51.756;7.450;2022-07-30T01:54:27;17.60;99.90
19292;DHT22;9779;51.756;7.450;2022-07-30T01:56:55;17.60;99.90
19292;DHT22;9779;51.756;7.450;2022-07-30T01:59:22;17.60;99.90
19292;DHT22;9779;51.756;7.450;2022-07-30T02:01:48;17.50;99.90
19292;DHT22;9779;51.756;7.450;2022-07-30T02:04:14;17.50;99.90
19292;DHT22;9779;51.756;7.450;2022-07-30T02:06:45;17.50;99.90
19292;DHT22;9779;51.756;7.450;2022-07-30T02:09:14;17.50;99.90
19292;DHT22;9779;51.756;7.450;2022-07-30T02:11:45;17.50;99.90
19292;DHT22;9779;51.756;7.450;2022-07-30T02:14:59;17.40;99.90
19292;DHT22;9779;51.756;7.450;2022-07-30T02:17:28;17.40;99.90
19292;DHT22;9779;51.756;7.450;2022-07-30T02:19:56;17.40;99.90
19292;DHT22;9779;51.756;7.450;2022-07-30T02:22:24;17.40;99.90
19292;DHT22;9779;51.756;7.450;2022-07-30T02:24:52;17.40;99.90
19292;DHT22;9779;51.756;7.450;2022-07-30T02:27:25;17.40;99.90
19292;DHT22;9779;51.756;7.450;2022-07-30T02:29:56;17.40;99.90
19292;DHT22;9779;51.756;7.450;2022-07-30T02:32:25;17.30;99.90
19292;DHT22;9779;51.756;7.450;2022-07-30T02:34:56;17.30;99.90
19292;DHT22;9779;51.756;7.450;2022-07-30T02:37:23;17.30;99.90
19292;DHT22;9779;51.756;7.450;2022-07-30T02:39:50;17.30;99.90
19292;DHT22;9779;51.756;7.450;2022-07-30T02:42:18;17.30;99.90
19292;DHT22;9779;51.756;7.450;2022-07-30T02:44:46;17.30;99.90
19292;DHT22;9779;51.756;7.450;2022-07-30T02:47:13;17.30;99.90
19292;DHT22;9779;51.756;7.450;2022-07-30T02:49:41;17.30;99.90
19292;DHT22;9779;51.756;7.450;2022-07-30T02:52:09;17.30;99.90
19292;DHT22;9779;51.756;7.450;2022-07-30T02:54:41;17.20;99.90
19292;DHT22;9779;51.756;7.450;2022-07-30T02:57:08;17.20;99.90
19292;DHT22;9779;51.756;7.450;2022-07-30T02:59:36;17.10;99.90
19292;DHT22;9779;51.756;7.450;2022-07-30T03:02:03;17.10;99.90
19292;DHT22;9779;51.756;7.450;2022-07-30T03:04:31;17.00;99.90
19292;DHT22;9779;51.756;7.450;2022-07-30T03:06:58;17.00;99.90
19292;DHT22;9779;51.756;7.450;2022-07-30T03:09:25;17.00;99.90
19292;DHT22;9779;51.756;7.450;2022-07-30T03:11:52;17.00;99.90
19292;DHT22;9779;51.756;7.450;2022-07-30T03:14:20;16.90;99.90
19292;DHT22;9779;51.756;7.450;2022-07-30T03:16:50;16.80;99.90
19292;DHT22;9779;51.756;7.450;2022-07-30T03:19:19;16.80;99.90
19292;DHT22;9779;51.756;7.450;2022-07-30T03:21:47;16.70;99.90
19292;DHT22;9779;51.756;7.450;2022-07-30T03:24:15;16.70;99.90
19292;DHT22;9779;51.756;7.450;2022-07-30T03:26:43;16.70;99.90
19292;DHT22;9779;51.756;7.450;2022-07-30T03:29:11;16.70;99.90
19292;DHT22;9779;51.756;7.450;2022-07-30T03:31:38;16.70;99.90
19292;DHT22;9779;51.756;7.450;2022-07-30T03:34:05;16.70;99.90
19292;DHT22;9779;51.756;7.450;2022-07-30T03:36:31;16.70;99.90
19292;DHT22;9779;51.756;7.450;2022-07-30T03:38:58;16.70;99.90
19292;DHT22;9779;51.756;7.450;2022-07-30T03:41:24;16.60;99.90
19292;DHT22;9779;51.756;7.450;2022-07-30T03:43:51;16.60;99.90
19292;DHT22;9779;51.756;7.450;2022-07-30T03:46:17;16.50;99.90
19292;DHT22;9779;51.756;7.450;2022-07-30T03:48:44;16.50;99.90
19292;DHT22;9779;51.756;7.450;2022-07-30T03:51:10;16.50;99.90
19292;DHT22;9779;51.756;7.450;2022-07-30T03:53:36;16.40;99.90
19292;DHT22;9779;51.756;7.450;2022-07-30T03:56:02;16.40;99.90
19292;DHT22;9779;51.756;7.450;2022-07-30T03:58:28;16.40;99.90
19292;DHT22;9779;51.756;7.450;2022-07-30T04:00:55;16.40;99.90
19292;DHT22;9779;51.756;7.450;2022-07-30T04:03:25;16.40;99.90
19292;DHT22;9779;51.756;7.450;2022-07-30T04:05:51;16.30;99.90
19292;DHT22;9779;51.756;7.450;2022-07-30T04:08:16;16.30;99.90
19292;DHT22;9779;51.756;7.450;2022-07-30T04:10:42;16.30;99.90
19292;DHT22;9779;51.756;7.450;2022-07-30T04:13:07;16.30;99.90
19292;DHT22;9779;51.756;7.450;2022-07-30T04:18:21;16.20;99.90
19292;DHT22;9779;51.756;7.450;2022-07-30T04:20:50;16.20;99.90
19292;DHT22;9779;51.756;7.450;2022-07-30T04:23:16;16.10;99.90
19292;DHT22;9779;51.756;7.450;2022-07-30T04:25:42;16.10;99.90
19292;DHT22;9779;51.756;7.450;2022-07-30T04:28:09;16.10;99.90
19292;DHT22;9779;51.756;7.450;2022-07-30T04:30:36;16.10;99.90
19292;DHT22;9779;51.756;7.450;2022-07-30T04:33:04;16.10;99.90
19292;DHT22;9779;51.756;7.450;2022-07-30T04:35:31;16.00;99.90
19292;DHT22;9779;51.756;7.450;2022-07-30T04:37:57;16.00;99.90
19292;DHT22;9779;51.756;7.450;2022-07-30T04:40:23;16.00;99.90
19292;DHT22;9779;51.756;7.450;2022-07-30T04:42:49;16.00;99.90
19292;DHT22;9779;51.756;7.450;2022-07-30T04:45:15;16.00;99.90
19292;DHT22;9779;51.756;7.450;2022-07-30T04:47:40;16.00;99.90
19292;DHT22;9779;51.756;7.450;2022-07-30T04:50:08;16.00;99.90
19292;DHT22;9779;51.756;7.450;2022-07-30T04:52:34;16.00;99.90
19292;DHT22;9779;51.756;7.450;2022-07-30T04:55:06;16.00;99.90
19292;DHT22;9779;51.756;7.450;2022-07-30T04:57:33;16.00;99.90
19292;DHT22;9779;51.756;7.450;2022-07-30T05:00:00;16.00;99.90
19292;DHT22;9779;51.756;7.450;2022-07-30T05:02:29;16.00;99.90
19292;DHT22;9779;51.756;7.450;2022-07-30T05:04:55;16.00;99.90
19292;DHT22;9779;51.756;7.450;2022-07-30T05:07:21;16.00;99.90
19292;DHT22;9779;51.756;7.450;2022-07-30T05:09:48;16.00;99.90
19292;DHT22;9779;51.756;7.450;2022-07-30T05:12:14;16.00;99.90
19292;DHT22;9779;51.756;7.450;2022-07-30T05:14:40;16.00;99.90
19292;DHT22;9779;51.756;7.450;2022-07-30T05:17:06;16.00;99.90
19292;DHT22;9779;51.756;7.450;2022-07-30T05:19:32;16.00;99.90
19292;DHT22;9779;51.756;7.450;2022-07-30T05:21:58;16.00;99.90
19292;DHT22;9779;51.756;7.450;2022-07-30T05:24:24;16.10;99.90
19292;DHT22;9779;51.756;7.450;2022-07-30T05:26:50;16.10;99.90
19292;DHT22;9779;51.756;7.450;2022-07-30T05:29:16;16.10;99.90
19292;DHT22;9779;51.756;7.450;2022-07-30T05:31:42;16.10;99.90
19292;DHT22;9779;51.756;7.450;2022-07-30T05:34:08;16.20;99.90
19292;DHT22;9779;51.756;7.450;2022-07-30T05:36:33;16.20;99.90
19292;DHT22;9779;51.756;7.450;2022-07-30T05:38:59;16.20;99.90
19292;DHT22;9779;51.756;7.450;2022-07-30T05:41:25;16.20;99.90
19292;DHT22;9779;51.756;7.450;2022-07-30T05:43:54;16.30;99.90
19292;DHT22;9779;51.756;7.450;2022-07-30T05:46:19;16.30;99.90
19292;DHT22;9779;51.756;7.450;2022-07-30T05:48:45;16.30;99.90
19292;DHT22;9779;51.756;7.450;2022-07-30T05:51:11;16.30;99.90
19292;DHT22;9779;51.756;7.450;2022-07-30T05:53:36;16.30;99.90
19292;DHT22;9779;51.756;7.450;2022-07-30T05:56:02;16.40;99.90
19292;DHT22;9779;51.756;7.450;2022-07-30T05:58:27;16.40;99.90
19292;DHT22;9779;51.756;7.450;2022-07-30T06:00:53;16.40;99.90
19292;DHT22;9779;51.756;7.450;2022-07-30T06:03:18;16.40;99.90
19292;DHT22;9779;51.756;7.450;2022-07-30T06:05:44;16.40;99.90
19292;DHT22;9779;51.756;7.450;2022-07-30T06:08:09;16.50;99.90
19292;DHT22;9779;51.756;7.450;2022-07-30T06:10:35;16.50;99.90
19292;DHT22;9779;51.756;7.450;2022-07-30T06:13:01;16.50;99.90
19292;DHT22;9779;51.756;7.450;2022-07-30T06:15:26;16.50;99.90
19292;DHT22;9779;51.756;7.450;2022-07-30T06:17:52;16.60;99.90
19292;DHT22;9779;51.756;7.450;2022-07-30T06:20:18;16.60;99.90
19292;DHT22;9779;51.756;7.450;2022-07-30T06:22:44;16.70;99.90
19292;DHT22;9779;51.756;7.450;2022-07-30T06:25:11;16.70;99.90
19292;DHT22;9779;51.756;7.450;2022-07-30T06:27:37;16.70;99.90
19292;DHT22;9779;51.756;7.450;2022-07-30T06:30:05;16.80;99.90
19292;DHT22;9779;51.756;7.450;2022-07-30T06:32:31;16.80;99.90
19292;DHT22;9779;51.756;7.450;2022-07-30T06:34:57;16.90;99.90
19292;DHT22;9779;51.756;7.450;2022-07-30T06:37:22;16.90;99.90
19292;DHT22;9779;51.756;7.450;2022-07-30T06:39:48;16.80;99.90
19292;DHT22;9779;51.756;7.450;2022-07-30T06:42:14;16.80;99.90
19292;DHT22;9779;51.756;7.450;2022-07-30T06:44:40;16.70;99.90
19292;DHT22;9779;51.756;7.450;2022-07-30T06:47:06;16.70;99.90
19292;DHT22;9779;51.756;7.450;2022-07-30T06:49:33;16.70;99.90
19292;DHT22;9779;51.756;7.450;2022-07-30T06:51:59;16.80;99.90
19292;DHT22;9779;51.756;7.450;2022-07-30T06:54:25;16.80;99.90
19292;DHT22;9779;51.756;7.450;2022-07-30T06:56:51;16.80;99.90
19292;DHT22;9779;51.756;7.450;2022-07-30T06:59:16;16.90;99.90
19292;DHT22;9779;51.756;7.450;2022-07-30T07:01:42;16.90;99.90
19292;DHT22;9779;51.756;7.450;2022-07-30T07:04:07;16.90;99.90
19292;DHT22;9779;51.756;7.450;2022-07-30T07:06:33;16.90;99.90
19292;DHT22;9779;51.756;7.450;2022-07-30T07:08:59;17.00;99.90
19292;DHT22;9779;51.756;7.450;2022-07-30T07:11:25;17.20;99.90
19292;DHT22;9779;51.756;7.450;2022-07-30T07:13:50;17.10;99.90
19292;DHT22;9779;51.756;7.450;2022-07-30T07:16:16;17.20;99.90
19292;DHT22;9779;51.756;7.450;2022-07-30T07:18:46;17.30;99.90
19292;DHT22;9779;51.756;7.450;2022-07-30T07:21:11;17.30;99.90
19292;DHT22;9779;51.756;7.450;2022-07-30T07:23:37;17.30;99.90
19292;DHT22;9779;51.756;7.450;2022-07-30T07:26:03;17.30;99.90
19292;DHT22;9779;51.756;7.450;2022-07-30T07:28:28;17.30;99.90
19292;DHT22;9779;51.756;7.450;2022-07-30T07:30:54;17.30;99.90
19292;DHT22;9779;51.756;7.450;2022-07-30T07:33:19;17.30;99.90
19292;DHT22;9779;51.756;7.450;2022-07-30T07:35:45;17.40;99.90
19292;DHT22;9779;51.756;7.450;2022-07-30T07:38:10;17.40;99.90
19292;DHT22;9779;51.756;7.450;2022-07-30T07:40:36;17.40;99.90
19292;DHT22;9779;51.756;7.450;2022-07-30T07:43:02;17.50;99.90
19292;DHT22;9779;51.756;7.450;2022-07-30T07:45:28;17.60;99.90
19292;DHT22;9779;51.756;7.450;2022-07-30T07:47:54;17.70;99.90
19292;DHT22;9779;51.756;7.450;2022-07-30T07:50:19;17.80;99.90
19292;DHT22;9779;51.756;7.450;2022-07-30T07:52:45;17.90;99.90
19292;DHT22;9779;51.756;7.450;2022-07-30T07:55:11;17.90;99.90
19292;DHT22;9779;51.756;7.450;2022-07-30T07:57:41;17.90;99.90
19292;DHT22;9779;51.756;7.450;2022-07-30T08:00:08;18.00;99.90
19292;DHT22;9779;51.756;7.450;2022-07-30T08:02:34;18.10;99.90
19292;DHT22;9779;51.756;7.450;2022-07-30T08:05:00;18.20;99.90
19292;DHT22;9779;51.756;7.450;2022-07-30T08:07:26;18.30;99.90
19292;DHT22;9779;51.756;7.450;2022-07-30T08:09:51;18.30;99.90
19292;DHT22;9779;51.756;7.450;2022-07-30T08:12:17;18.30;99.90
19292;DHT22;9779;51.756;7.450;2022-07-30T08:14:43;18.40;99.90
19292;DHT22;9779;51.756;7.450;2022-07-30T08:17:08;18.50;99.90
19292;DHT22;9779;51.756;7.450;2022-07-30T08:19:34;18.50;99.90
19292;DHT22;9779;51.756;7.450;2022-07-30T08:21:59;18.60;99.90
19292;DHT22;9779;51.756;7.450;2022-07-30T08:24:25;18.50;99.90
19292;DHT22;9779;51.756;7.450;2022-07-30T08:26:51;18.70;99.90
19292;DHT22;9779;51.756;7.450;2022-07-30T08:29:16;18.70;99.90
19292;DHT22;9779;51.756;7.450;2022-07-30T08:31:42;18.80;99.90
19292;DHT22;9779;51.756;7.450;2022-07-30T08:34:08;18.90;99.90
19292;DHT22;9779;51.756;7.450;2022-07-30T08:36:33;19.00;99.90
19292;DHT22;9779;51.756;7.450;2022-07-30T08:38:59;19.10;99.90
19292;DHT22;9779;51.756;7.450;2022-07-30T08:41:25;19.10;99.90
19292;DHT22;9779;51.756;7.450;2022-07-30T08:43:52;19.30;99.90
19292;DHT22;9779;51.756;7.450;2022-07-30T08:46:22;19.30;99.90
19292;DHT22;9779;51.756;7.450;2022-07-30T08:48:48;19.30;99.90
19292;DHT22;9779;51.756;7.450;2022-07-30T08:51:16;19.30;99.90
19292;DHT22;9779;51.756;7.450;2022-07-30T08:53:44;19.50;99.90
19292;DHT22;9779;51.756;7.450;2022-07-30T08:56:10;19.50;99.90
19292;DHT22;9779;51.756;7.450;2022-07-30T08:58:36;19.60;99.90
19292;DHT22;9779;51.756;7.450;2022-07-30T09:01:03;19.80;99.90
19292;DHT22;9779;51.756;7.450;2022-07-30T09:03:29;19.80;99.90
19292;DHT22;9779;51.756;7.450;2022-07-30T09:05:55;20.00;99.90
19292;DHT22;9779;51.756;7.450;2022-07-30T09:08:21;19.90;99.90
19292;DHT22;9779;51.756;7.450;2022-07-30T09:10:46;19.90;99.90
19292;DHT22;9779;51.756;7.450;2022-07-30T09:13:45;19.90;99.90
19292;DHT22;9779;51.756;7.450;2022-07-30T09:16:37;19.90;99.90
19292;DHT22;9779;51.756;7.450;2022-07-30T09:19:18;20.00;99.90
19292;DHT22;9779;51.756;7.450;2022-07-30T09:21:57;20.10;99.90
19292;DHT22;9779;51.756;7.450;2022-07-30T09:24:23;20.20;99.90
19292;DHT22;9779;51.756;7.450;2022-07-30T09:29:27;20.30;99.90
19292;DHT22;9779;51.756;7.450;2022-07-30T09:31:59;20.50;99.90
19292;DHT22;9779;51.756;7.450;2022-07-30T09:34:29;20.40;99.90
19292;DHT22;9779;51.756;7.450;2022-07-30T09:36:57;20.50;99.90
19292;DHT22;9779;51.756;7.450;2022-07-30T09:39:39;20.60;99.90
19292;DHT22;9779;51.756;7.450;2022-07-30T09:42:26;20.80;99.90
19292;DHT22;9779;51.756;7.450;2022-07-30T09:45:04;20.80;99.90
19292;DHT22;9779;51.756;7.450;2022-07-30T09:47:32;20.90;99.90
19292;DHT22;9779;51.756;7.450;2022-07-30T09:50:08;21.10;99.90
19292;DHT22;9779;51.756;7.450;2022-07-30T09:52:36;21.20;99.90
19292;DHT22;9779;51.756;7.450;2022-07-30T09:55:02;21.40;99.90
19292;DHT22;9779;51.756;7.450;2022-07-30T09:57:28;21.50;99.90
19292;DHT22;9779;51.756;7.450;2022-07-30T09:59:55;21.50;99.90
19292;DHT22;9779;51.756;7.450;2022-07-30T10:02:30;21.60;99.90
19292;DHT22;9779;51.756;7.450;2022-07-30T10:05:08;21.70;99.90
19292;DHT22;9779;51.756;7.450;2022-07-30T10:07:34;21.90;99.90
19292;DHT22;9779;51.756;7.450;2022-07-30T10:10:01;21.80;99.90
19292;DHT22;9779;51.756;7.450;2022-07-30T10:12:27;22.00;99.90
19292;DHT22;9779;51.756;7.450;2022-07-30T10:14:54;22.20;99.90
19292;DHT22;9779;51.756;7.450;2022-07-30T10:17:21;22.30;99.90
19292;DHT22;9779;51.756;7.450;2022-07-30T10:19:47;22.50;99.90
19292;DHT22;9779;51.756;7.450;2022-07-30T10:22:12;22.70;99.90
19292;DHT22;9779;51.756;7.450;2022-07-30T10:24:39;22.80;99.90
19292;DHT22;9779;51.756;7.450;2022-07-30T10:27:07;22.80;99.90
19292;DHT22;9779;51.756;7.450;2022-07-30T10:29:36;22.90;99.90
19292;DHT22;9779;51.756;7.450;2022-07-30T10:32:03;23.10;99.90
19292;DHT22;9779;51.756;7.450;2022-07-30T10:34:29;23.30;99.90
19292;DHT22;9779;51.756;7.450;2022-07-30T10:36:59;23.30;99.90
19292;DHT22;9779;51.756;7.450;2022-07-30T10:39:29;23.30;99.90
19292;DHT22;9779;51.756;7.450;2022-07-30T10:45:02;23.30;99.90
19292;DHT22;9779;51.756;7.450;2022-07-30T10:47:33;23.80;99.90
19292;DHT22;9779;51.756;7.450;2022-07-30T10:50:11;23.90;99.90
19292;DHT22;9779;51.756;7.450;2022-07-30T10:57:59;24.40;99.90
19292;DHT22;9779;51.756;7.450;2022-07-30T11:00:25;24.70;99.90
19292;DHT22;9779;51.756;7.450;2022-07-30T11:03:17;24.70;99.90
19292;DHT22;9779;51.756;7.450;2022-07-30T11:05:46;24.90;99.90
19292;DHT22;9779;51.756;7.450;2022-07-30T11:08:35;24.80;99.90
19292;DHT22;9779;51.756;7.450;2022-07-30T11:11:02;24.90;99.90
19292;DHT22;9779;51.756;7.450;2022-07-30T11:13:51;24.90;99.90
19292;DHT22;9779;51.756;7.450;2022-07-30T11:16:18;25.30;99.90
19292;DHT22;9779;51.756;7.450;2022-07-30T11:19:07;25.30;99.90
19292;DHT22;9779;51.756;7.450;2022-07-30T11:21:34;25.30;99.90
19292;DHT22;9779;51.756;7.450;2022-07-30T11:24:00;25.60;99.90
19292;DHT22;9779;51.756;7.450;2022-07-30T11:29:05;25.50;99.90
19292;DHT22;9779;51.756;7.450;2022-07-30T11:31:35;25.60;99.90
19292;DHT22;9779;51.756;7.450;2022-07-30T11:37:12;25.60;99.90
19292;DHT22;9779;51.756;7.450;2022-07-30T11:42:26;25.40;99.90
19292;DHT22;9779;51.756;7.450;2022-07-30T11:44:53;25.60;99.90
19292;DHT22;9779;51.756;7.450;2022-07-30T11:47:38;25.80;99.90
19292;DHT22;9779;51.756;7.450;2022-07-30T11:50:04;26.30;99.90
19292;DHT22;9779;51.756;7.450;2022-07-30T11:52:31;26.50;99.90
19292;DHT22;9779;51.756;7.450;2022-07-30T11:54:57;26.40;99.90
19292;DHT22;9779;51.756;7.450;2022-07-30T11:57:39;26.70;99.90
19292;DHT22;9779;51.756;7.450;2022-07-30T12:00:05;27.10;99.90
19292;DHT22;9779;51.756;7.450;2022-07-30T12:02:31;27.40;99.90
19292;DHT22;9779;51.756;7.450;2022-07-30T12:04:56;27.30;99.90
19292;DHT22;9779;51.756;7.450;2022-07-30T12:07:22;26.70;99.90
19292;DHT22;9779;51.756;7.450;2022-07-30T12:09:48;26.40;99.90
19292;DHT22;9779;51.756;7.450;2022-07-30T12:12:23;26.40;99.90
19292;DHT22;9779;51.756;7.450;2022-07-30T12:14:50;26.20;99.90
19292;DHT22;9779;51.756;7.450;2022-07-30T12:17:15;26.10;99.90
19292;DHT22;9779;51.756;7.450;2022-07-30T12:19:45;26.00;99.90
19292;DHT22;9779;51.756;7.450;2022-07-30T12:22:11;26.20;99.90
19292;DHT22;9779;51.756;7.450;2022-07-30T12:24:36;26.10;99.90
19292;DHT22;9779;51.756;7.450;2022-07-30T12:27:06;26.40;99.10
19292;DHT22;9779;51.756;7.450;2022-07-30T12:29:35;26.60;99.10
19292;DHT22;9779;51.756;7.450;2022-07-30T12:32:01;27.00;98.70
19292;DHT22;9779;51.756;7.450;2022-07-30T12:34:26;27.50;98.40
19292;DHT22;9779;51.756;7.450;2022-07-30T12:36:53;27.60;93.40
19292;DHT22;9779;51.756;7.450;2022-07-30T12:39:24;27.40;93.50
19292;DHT22;9779;51.756;7.450;2022-07-30T12:41:52;27.50;92.20
19292;DHT22;9779;51.756;7.450;2022-07-30T12:44:40;27.50;91.00
19292;DHT22;9779;51.756;7.450;2022-07-30T12:47:18;27.70;89.30
19292;DHT22;9779;51.756;7.450;2022-07-30T12:49:44;27.90;87.50
19292;DHT22;9779;51.756;7.450;2022-07-30T12:52:39;28.20;89.50
19292;DHT22;9779;51.756;7.450;2022-07-30T12:55:10;28.60;86.10
19292;DHT22;9779;51.756;7.450;2022-07-30T12:57:59;28.70;83.90
19292;DHT22;9779;51.756;7.450;2022-07-30T13:00:44;28.80;83.50
19292;DHT22;9779;51.756;7.450;2022-07-30T13:03:27;29.00;83.80
19292;DHT22;9779;51.756;7.450;2022-07-30T13:05:54;29.20;79.80
19292;DHT22;9779;51.756;7.450;2022-07-30T13:08:24;29.20;77.90
19292;DHT22;9779;51.756;7.450;2022-07-30T13:11:06;29.20;78.70
19292;DHT22;9779;51.756;7.450;2022-07-30T13:13:31;29.30;77.20
19292;DHT22;9779;51.756;7.450;2022-07-30T13:16:01;29.40;76.20
19292;DHT22;9779;51.756;7.450;2022-07-30T13:18:28;29.30;75.30
19292;DHT22;9779;51.756;7.450;2022-07-30T13:20:54;29.30;72.50
19292;DHT22;9779;51.756;7.450;2022-07-30T13:23:21;29.30;72.70
19292;DHT22;9779;51.756;7.450;2022-07-30T13:25:46;29.30;72.60
19292;DHT22;9779;51.756;7.450;2022-07-30T13:28:12;29.30;73.20
19292;DHT22;9779;51.756;7.450;2022-07-30T13:30:38;29.60;70.80
19292;DHT22;9779;51.756;7.450;2022-07-30T13:33:03;29.70;69.70
19292;DHT22;9779;51.756;7.450;2022-07-30T13:35:29;29.60;69.90
19292;DHT22;9779;51.756;7.450;2022-07-30T13:37:54;29.70;68.90
19292;DHT22;9779;51.756;7.450;2022-07-30T13:40:21;29.80;70.20
19292;DHT22;9779;51.756;7.450;2022-07-30T13:42:47;29.50;67.80
19292;DHT22;9779;51.756;7.450;2022-07-30T13:45:12;29.50;66.50
19292;DHT22;9779;51.756;7.450;2022-07-30T13:47:38;29.20;66.90
19292;DHT22;9779;51.756;7.450;2022-07-30T13:50:04;29.30;66.80
19292;DHT22;9779;51.756;7.450;2022-07-30T13:52:29;29.10;64.90
19292;DHT22;9779;51.756;7.450;2022-07-30T13:54:55;29.20;66.50
19292;DHT22;9779;51.756;7.450;2022-07-30T13:57:20;29.20;63.80
19292;DHT22;9779;51.756;7.450;2022-07-30T13:59:46;29.30;63.20
19292;DHT22;9779;51.756;7.450;2022-07-30T14:02:12;29.40;62.60
19292;DHT22;9779;51.756;7.450;2022-07-30T14:04:38;29.30;62.10
19292;DHT22;9779;51.756;7.450;2022-07-30T14:07:04;29.30;63.20
19292;DHT22;9779;51.756;7.450;2022-07-30T14:09:29;29.30;60.20
19292;DHT22;9779;51.756;7.450;2022-07-30T14:11:55;29.40;58.20
19292;DHT22;9779;51.756;7.450;2022-07-30T14:14:21;29.20;58.80
19292;DHT22;9779;51.756;7.450;2022-07-30T14:16:50;28.90;59.00
19292;DHT22;9779;51.756;7.450;2022-07-30T14:19:17;28.80;59.70
19292;DHT22;9779;51.756;7.450;2022-07-30T14:21:43;28.80;58.20
19292;DHT22;9779;51.756;7.450;2022-07-30T14:24:09;29.20;60.50
19292;DHT22;9779;51.756;7.450;2022-07-30T14:26:37;29.30;58.80
19292;DHT22;9779;51.756;7.450;2022-07-30T14:29:04;29.20;56.80
19292;DHT22;9779;51.756;7.450;2022-07-30T14:31:30;29.10;57.10
19292;DHT22;9779;51.756;7.450;2022-07-30T14:33:55;29.10;58.80
19292;DHT22;9779;51.756;7.450;2022-07-30T14:36:21;29.00;56.20
19292;DHT22;9779;51.756;7.450;2022-07-30T14:38:47;28.80;57.00
19292;DHT22;9779;51.756;7.450;2022-07-30T14:41:13;29.10;60.10
19292;DHT22;9779;51.756;7.450;2022-07-30T14:43:38;28.90;56.00
19292;DHT22;9779;51.756;7.450;2022-07-30T14:46:04;28.70;55.30
19292;DHT22;9779;51.756;7.450;2022-07-30T14:48:29;28.50;58.50
19292;DHT22;9779;51.756;7.450;2022-07-30T14:50:55;28.50;58.40
19292;DHT22;9779;51.756;7.450;2022-07-30T14:53:21;28.60;58.40
19292;DHT22;9779;51.756;7.450;2022-07-30T14:55:46;28.50;58.80
19292;DHT22;9779;51.756;7.450;2022-07-30T14:58:12;28.50;59.30
19292;DHT22;9779;51.756;7.450;2022-07-30T15:00:38;28.70;58.80
19292;DHT22;9779;51.756;7.450;2022-07-30T15:03:04;28.70;59.70
19292;DHT22;9779;51.756;7.450;2022-07-30T15:05:29;29.10;59.30
19292;DHT22;9779;51.756;7.450;2022-07-30T15:07:55;29.40;58.30
19292;DHT22;9779;51.756;7.450;2022-07-30T15:10:20;29.70;56.70
19292;DHT22;9779;51.756;7.450;2022-07-30T15:12:46;29.80;57.30
19292;DHT22;9779;51.756;7.450;2022-07-30T15:15:11;29.90;58.20
19292;DHT22;9779;51.756;7.450;2022-07-30T15:17:37;30.10;57.30
19292;DHT22;9779;51.756;7.450;2022-07-30T15:20:05;29.90;56.40
19292;DHT22;9779;51.756;7.450;2022-07-30T15:22:33;29.70;56.60
19292;DHT22;9779;51.756;7.450;2022-07-30T15:24:59;29.50;55.20
19292;DHT22;9779;51.756;7.450;2022-07-30T15:27:25;29.50;55.10
19292;DHT22;9779;51.756;7.450;2022-07-30T15:29:52;29.70;55.40
19292;DHT22;9779;51.756;7.450;2022-07-30T15:32:17;29.80;55.70
19292;DHT22;9779;51.756;7.450;2022-07-30T15:34:43;29.80;54.80
19292;DHT22;9779;51.756;7.450;2022-07-30T15:37:08;29.70;56.90
19292;DHT22;9779;51.756;7.450;2022-07-30T15:39:34;30.00;57.90
19292;DHT22;9779;51.756;7.450;2022-07-30T15:42:01;30.30;57.70
19292;DHT22;9779;51.756;7.450;2022-07-30T15:44:27;30.20;55.20
19292;DHT22;9779;51.756;7.450;2022-07-30T15:46:53;30.10;54.80
19292;DHT22;9779;51.756;7.450;2022-07-30T15:49:19;30.10;55.30
19292;DHT22;9779;51.756;7.450;2022-07-30T15:51:44;30.30;54.20
19292;DHT22;9779;51.756;7.450;2022-07-30T15:54:14;30.60;55.40
19292;DHT22;9779;51.756;7.450;2022-07-30T15:56:40;30.80;52.30
19292;DHT22;9779;51.756;7.450;2022-07-30T15:59:05;30.40;53.00
19292;DHT22;9779;51.756;7.450;2022-07-30T16:01:32;30.30;54.20
19292;DHT22;9779;51.756;7.450;2022-07-30T16:03:58;30.40;54.30
19292;DHT22;9779;51.756;7.450;2022-07-30T16:06:23;30.40;54.90
19292;DHT22;9779;51.756;7.450;2022-07-30T16:08:49;30.60;54.60
19292;DHT22;9779;51.756;7.450;2022-07-30T16:11:15;30.40;54.70
19292;DHT22;9779;51.756;7.450;2022-07-30T16:13:40;30.30;54.30